Coalisland, United Kingdom
Current Conditions -  °F | °C
As of 10:20 AM on Thursday 23 Oct 2014 (Local Time) from EGAA Reporting Station
Broken Clouds Broken Clouds  
Wind Chill: 55°   Ceiling: 1400
Heat Index: 55°   Visibility: 6mi
Dew Point: 52°   Wind: 13mph
Humidity: 88%   Direction: 220°SW
Pressure: 29.83"   Gusts: NA
Location:  54.54°N, 6.7°W
Report Text: EGAA 230920Z 22011KT 9999 SCT009 BKN014 13/11 Q1010
Loading
Personal Weather Stations






























Interactive Weather Map
Tropical Storm Tracking
New forecast layout! Learn more

10-Day Weather Forecast

Advertisements
Track Severe Weather on mobile